Kezdőlap
METAR-TAF:

METAR-TAF

Repülőterek :

Formosa, Argentína

földrajzi szélesség: 26-12S, földrajzi hosszúság: 058-14W, magasság: 59 m

METAR: hiányzik

Idő: 22:09 (01:09 UTC)

Előrejelzés

A jelentés 2 órával és 9 perccel ezelõtt készült, 23:00 UTC
Az előrejelzés 20-én 00 óra UTC és 20-én 24 óra UTC között érvényes
Déli szél 5 kt
Látótávolság 10 km, vagy több
felhőtlen 1500 m magasságban, és nincs gomolyfelhõ
Valószínűség 30%
20-én 03 óra UTC és 20-én 11 óra UTC között
Látótávolság: 3000 m
Párásság,

TAF: SARF 192300Z 2000/2024 18005KT CAVOK TX20/2018Z TN10/2009Z PROB30 2003/2011 3000 BR NSC

Meteorológiai megfigyelések és előrejelzések több, mint 4000 repülőtéren (METAR és TAF jelentéseket).

A térképen piros és sárga pontok jelzik az elérhető meteorológiai állomásokat.

Mozgassa az egeret a pont fölött, hogy megjelenjen az állomás neve.

Azután kattintson az időjárási megfigyelések és előrejelzések megtekintéséhez.

A térkép megváltoztatása: kattintson a fekete keresztel jelölt zöld gombra ráközelítéshez, a vonallal jelölt zöld gombra távolításhoz, vagy a zöld nyilakra a szomszédos térképek eléréséhez.


METAR-TAF: